METAR Formatted Surface Weather Observation
Issued by NWS

Home | Current Version | Previous Version | Text Only | Print | Product List | Glossary On
Versions: 1
000
SAUS46 KSGX 071852
MTRSAN
METAR KSAN 071851Z 25006KT 10SM OVC018 21/15 A3000 RMK AO2 SLP158
T02060150 $



USA.gov is the U.S. government's official web portal to all federal, state and local government web resources and services.